sensor_id;sensor_type;location;lat;lon;timestamp;P1;durP1;ratioP1;P2;durP2;ratioP2
23670;SDS011;12012;51.998;7.614;2023-05-10T00:01:03;6.43;;;5.03;;
23670;SDS011;12012;51.998;7.614;2023-05-10T00:03:29;6.53;;;5.55;;
23670;SDS011;12012;51.998;7.614;2023-05-10T00:05:54;5.95;;;5.22;;
23670;SDS011;12012;51.998;7.614;2023-05-10T00:08:20;6.32;;;5.72;;
23670;SDS011;12012;51.998;7.614;2023-05-10T00:10:46;6.10;;;5.50;;
23670;SDS011;12012;51.998;7.614;2023-05-10T00:13:11;7.00;;;6.18;;
23670;SDS011;12012;51.998;7.614;2023-05-10T00:15:37;5.82;;;5.28;;
23670;SDS011;12012;51.998;7.614;2023-05-10T00:18:02;5.43;;;4.90;;
23670;SDS011;12012;51.998;7.614;2023-05-10T00:20:28;5.93;;;5.38;;
23670;SDS011;12012;51.998;7.614;2023-05-10T00:22:54;6.15;;;5.55;;
23670;SDS011;12012;51.998;7.614;2023-05-10T00:25:19;6.95;;;6.25;;
23670;SDS011;12012;51.998;7.614;2023-05-10T00:27:46;5.50;;;5.00;;
23670;SDS011;12012;51.998;7.614;2023-05-10T00:30:12;11.57;;;6.82;;
23670;SDS011;12012;51.998;7.614;2023-05-10T00:32:38;8.73;;;7.40;;
23670;SDS011;12012;51.998;7.614;2023-05-10T00:35:04;6.32;;;5.68;;
23670;SDS011;12012;51.998;7.614;2023-05-10T00:37:29;6.32;;;5.25;;
23670;SDS011;12012;51.998;7.614;2023-05-10T00:39:55;8.60;;;6.22;;
23670;SDS011;12012;51.998;7.614;2023-05-10T00:42:21;9.38;;;7.75;;
23670;SDS011;12012;51.998;7.614;2023-05-10T00:44:47;6.75;;;5.75;;
23670;SDS011;12012;51.998;7.614;2023-05-10T00:47:12;7.30;;;6.03;;
23670;SDS011;12012;51.998;7.614;2023-05-10T00:49:38;7.32;;;6.00;;
23670;SDS011;12012;51.998;7.614;2023-05-10T00:52:05;6.60;;;5.72;;
23670;SDS011;12012;51.998;7.614;2023-05-10T00:54:31;7.10;;;5.97;;
23670;SDS011;12012;51.998;7.614;2023-05-10T00:56:56;6.78;;;4.88;;
23670;SDS011;12012;51.998;7.614;2023-05-10T00:59:22;9.77;;;6.70;;
23670;SDS011;12012;51.998;7.614;2023-05-10T01:01:48;8.52;;;6.97;;
23670;SDS011;12012;51.998;7.614;2023-05-10T01:04:14;8.77;;;7.20;;
23670;SDS011;12012;51.998;7.614;2023-05-10T01:06:40;9.10;;;7.13;;
23670;SDS011;12012;51.998;7.614;2023-05-10T01:09:06;7.05;;;5.95;;
23670;SDS011;12012;51.998;7.614;2023-05-10T01:11:33;7.75;;;5.93;;
23670;SDS011;12012;51.998;7.614;2023-05-10T01:14:02;9.15;;;7.30;;
23670;SDS011;12012;51.998;7.614;2023-05-10T01:16:29;8.95;;;7.40;;
23670;SDS011;12012;51.998;7.614;2023-05-10T01:18:58;6.93;;;5.78;;
23670;SDS011;12012;51.998;7.614;2023-05-10T01:21:37;10.15;;;8.13;;
23670;SDS011;12012;51.998;7.614;2023-05-10T01:24:33;9.85;;;7.43;;
23670;SDS011;12012;51.998;7.614;2023-05-10T01:27:09;12.05;;;8.38;;
23670;SDS011;12012;51.998;7.614;2023-05-10T01:35:51;5.75;;;4.15;;
23670;SDS011;12012;51.998;7.614;2023-05-10T01:38:27;3.70;;;3.35;;
23670;SDS011;12012;51.998;7.614;2023-05-10T01:46:28;4.88;;;3.33;;
23670;SDS011;12012;51.998;7.614;2023-05-10T01:49:12;3.50;;;3.00;;
23670;SDS011;12012;51.998;7.614;2023-05-10T01:51:47;3.22;;;2.90;;
23670;SDS011;12012;51.998;7.614;2023-05-10T01:54:17;3.63;;;2.60;;
23670;SDS011;12012;51.998;7.614;2023-05-10T01:56:45;3.30;;;2.60;;
23670;SDS011;12012;51.998;7.614;2023-05-10T01:59:15;5.53;;;3.28;;
23670;SDS011;12012;51.998;7.614;2023-05-10T02:01:44;3.80;;;2.80;;
23670;SDS011;12012;51.998;7.614;2023-05-10T02:04:11;3.22;;;2.92;;
23670;SDS011;12012;51.998;7.614;2023-05-10T02:06:41;3.40;;;2.83;;
23670;SDS011;12012;51.998;7.614;2023-05-10T02:09:08;3.65;;;2.47;;
23670;SDS011;12012;51.998;7.614;2023-05-10T02:11:37;3.38;;;2.95;;
23670;SDS011;12012;51.998;7.614;2023-05-10T02:14:08;5.10;;;3.13;;
23670;SDS011;12012;51.998;7.614;2023-05-10T02:16:36;3.87;;;2.63;;
23670;SDS011;12012;51.998;7.614;2023-05-10T02:19:02;5.35;;;2.67;;
23670;SDS011;12012;51.998;7.614;2023-05-10T02:21:29;4.80;;;3.10;;
23670;SDS011;12012;51.998;7.614;2023-05-10T02:23:56;4.70;;;3.45;;
23670;SDS011;12012;51.998;7.614;2023-05-10T02:26:22;6.38;;;3.42;;
23670;SDS011;12012;51.998;7.614;2023-05-10T02:28:50;4.82;;;3.55;;
23670;SDS011;12012;51.998;7.614;2023-05-10T02:31:17;6.57;;;4.20;;
23670;SDS011;12012;51.998;7.614;2023-05-10T02:33:44;5.00;;;3.90;;
23670;SDS011;12012;51.998;7.614;2023-05-10T02:36:10;4.38;;;3.40;;
23670;SDS011;12012;51.998;7.614;2023-05-10T02:38:38;6.03;;;4.82;;
23670;SDS011;12012;51.998;7.614;2023-05-10T02:41:05;6.47;;;4.35;;
23670;SDS011;12012;51.998;7.614;2023-05-10T02:43:34;8.27;;;5.05;;
23670;SDS011;12012;51.998;7.614;2023-05-10T02:46:01;7.18;;;5.10;;
23670;SDS011;12012;51.998;7.614;2023-05-10T02:48:27;7.68;;;4.65;;
23670;SDS011;12012;51.998;7.614;2023-05-10T02:50:53;6.82;;;5.00;;
23670;SDS011;12012;51.998;7.614;2023-05-10T02:53:22;7.85;;;6.15;;
23670;SDS011;12012;51.998;7.614;2023-05-10T02:55:56;7.78;;;5.63;;
23670;SDS011;12012;51.998;7.614;2023-05-10T02:58:24;8.52;;;6.18;;
23670;SDS011;12012;51.998;7.614;2023-05-10T03:00:50;8.82;;;7.15;;
23670;SDS011;12012;51.998;7.614;2023-05-10T03:03:15;7.50;;;6.20;;
23670;SDS011;12012;51.998;7.614;2023-05-10T03:05:41;8.45;;;7.05;;
23670;SDS011;12012;51.998;7.614;2023-05-10T03:08:07;8.45;;;5.95;;
23670;SDS011;12012;51.998;7.614;2023-05-10T03:10:32;13.25;;;7.80;;
23670;SDS011;12012;51.998;7.614;2023-05-10T03:13:07;9.35;;;7.45;;
23670;SDS011;12012;51.998;7.614;2023-05-10T03:21:15;9.77;;;6.63;;
23670;SDS011;12012;51.998;7.614;2023-05-10T03:23:47;12.52;;;7.63;;
23670;SDS011;12012;51.998;7.614;2023-05-10T03:26:26;8.73;;;6.15;;
23670;SDS011;12012;51.998;7.614;2023-05-10T03:28:53;11.23;;;8.73;;
23670;SDS011;12012;51.998;7.614;2023-05-10T03:31:20;11.02;;;8.07;;
23670;SDS011;12012;51.998;7.614;2023-05-10T03:33:46;10.98;;;8.45;;
23670;SDS011;12012;51.998;7.614;2023-05-10T03:36:13;12.52;;;7.32;;
23670;SDS011;12012;51.998;7.614;2023-05-10T03:38:38;9.73;;;7.40;;
23670;SDS011;12012;51.998;7.614;2023-05-10T03:41:04;11.80;;;7.50;;
23670;SDS011;12012;51.998;7.614;2023-05-10T03:43:30;10.15;;;7.60;;
23670;SDS011;12012;51.998;7.614;2023-05-10T03:45:55;10.85;;;8.00;;
23670;SDS011;12012;51.998;7.614;2023-05-10T03:48:21;10.55;;;7.40;;
23670;SDS011;12012;51.998;7.614;2023-05-10T03:50:46;12.80;;;7.93;;
23670;SDS011;12012;51.998;7.614;2023-05-10T03:53:12;8.27;;;6.45;;
23670;SDS011;12012;51.998;7.614;2023-05-10T03:55:37;10.82;;;7.22;;
23670;SDS011;12012;51.998;7.614;2023-05-10T03:58:03;10.63;;;7.55;;
23670;SDS011;12012;51.998;7.614;2023-05-10T04:00:28;8.38;;;6.35;;
23670;SDS011;12012;51.998;7.614;2023-05-10T04:02:55;10.25;;;7.53;;
23670;SDS011;12012;51.998;7.614;2023-05-10T04:05:20;8.18;;;6.32;;
23670;SDS011;12012;51.998;7.614;2023-05-10T04:07:46;13.00;;;8.93;;
23670;SDS011;12012;51.998;7.614;2023-05-10T04:10:12;11.93;;;8.65;;
23670;SDS011;12012;51.998;7.614;2023-05-10T04:12:37;8.98;;;6.90;;
23670;SDS011;12012;51.998;7.614;2023-05-10T04:15:03;12.25;;;8.93;;
23670;SDS011;12012;51.998;7.614;2023-05-10T04:17:29;14.13;;;8.98;;
23670;SDS011;12012;51.998;7.614;2023-05-10T04:19:55;11.88;;;8.45;;
23670;SDS011;12012;51.998;7.614;2023-05-10T04:22:21;9.45;;;7.22;;
23670;SDS011;12012;51.998;7.614;2023-05-10T04:24:46;10.88;;;7.63;;
23670;SDS011;12012;51.998;7.614;2023-05-10T04:27:12;11.65;;;7.53;;
23670;SDS011;12012;51.998;7.614;2023-05-10T04:29:37;12.38;;;7.60;;
23670;SDS011;12012;51.998;7.614;2023-05-10T04:32:03;9.57;;;6.47;;
23670;SDS011;12012;51.998;7.614;2023-05-10T04:34:29;12.02;;;8.20;;
23670;SDS011;12012;51.998;7.614;2023-05-10T04:36:54;13.65;;;7.85;;
23670;SDS011;12012;51.998;7.614;2023-05-10T04:39:20;9.57;;;6.78;;
23670;SDS011;12012;51.998;7.614;2023-05-10T04:41:45;7.82;;;6.07;;
23670;SDS011;12012;51.998;7.614;2023-05-10T04:44:11;9.93;;;7.55;;
23670;SDS011;12012;51.998;7.614;2023-05-10T04:46:36;9.63;;;6.38;;
23670;SDS011;12012;51.998;7.614;2023-05-10T04:49:02;10.82;;;6.75;;
23670;SDS011;12012;51.998;7.614;2023-05-10T04:51:28;19.50;;;6.78;;
23670;SDS011;12012;51.998;7.614;2023-05-10T04:53:53;8.70;;;6.22;;
23670;SDS011;12012;51.998;7.614;2023-05-10T04:56:19;12.63;;;8.65;;
23670;SDS011;12012;51.998;7.614;2023-05-10T04:58:44;11.93;;;8.68;;
23670;SDS011;12012;51.998;7.614;2023-05-10T05:01:10;8.70;;;5.60;;
23670;SDS011;12012;51.998;7.614;2023-05-10T05:03:36;10.63;;;7.28;;
23670;SDS011;12012;51.998;7.614;2023-05-10T05:06:02;11.93;;;6.95;;
23670;SDS011;12012;51.998;7.614;2023-05-10T05:08:28;9.55;;;6.72;;
23670;SDS011;12012;51.998;7.614;2023-05-10T05:10:53;7.22;;;5.55;;
23670;SDS011;12012;51.998;7.614;2023-05-10T05:13:19;9.55;;;6.75;;
23670;SDS011;12012;51.998;7.614;2023-05-10T05:15:45;10.25;;;7.65;;
23670;SDS011;12012;51.998;7.614;2023-05-10T05:18:10;9.80;;;7.07;;
23670;SDS011;12012;51.998;7.614;2023-05-10T05:20:36;8.93;;;6.93;;
23670;SDS011;12012;51.998;7.614;2023-05-10T05:23:01;12.43;;;8.10;;
23670;SDS011;12012;51.998;7.614;2023-05-10T05:25:27;14.70;;;9.32;;
23670;SDS011;12012;51.998;7.614;2023-05-10T05:27:53;13.40;;;9.43;;
23670;SDS011;12012;51.998;7.614;2023-05-10T05:30:18;15.05;;;8.98;;
23670;SDS011;12012;51.998;7.614;2023-05-10T05:32:44;10.75;;;7.90;;
23670;SDS011;12012;51.998;7.614;2023-05-10T05:35:09;12.27;;;8.77;;
23670;SDS011;12012;51.998;7.614;2023-05-10T05:37:35;12.18;;;8.15;;
23670;SDS011;12012;51.998;7.614;2023-05-10T05:40:02;14.50;;;9.93;;
23670;SDS011;12012;51.998;7.614;2023-05-10T05:42:28;11.80;;;7.78;;
23670;SDS011;12012;51.998;7.614;2023-05-10T05:44:53;15.10;;;9.80;;
23670;SDS011;12012;51.998;7.614;2023-05-10T05:47:19;11.63;;;8.40;;
23670;SDS011;12012;51.998;7.614;2023-05-10T05:49:44;20.70;;;12.82;;
23670;SDS011;12012;51.998;7.614;2023-05-10T05:52:10;23.70;;;14.32;;
23670;SDS011;12012;51.998;7.614;2023-05-10T05:54:36;16.52;;;9.65;;
23670;SDS011;12012;51.998;7.614;2023-05-10T05:57:02;23.55;;;15.00;;
23670;SDS011;12012;51.998;7.614;2023-05-10T05:59:27;19.42;;;12.07;;
23670;SDS011;12012;51.998;7.614;2023-05-10T06:01:53;21.45;;;13.45;;
23670;SDS011;12012;51.998;7.614;2023-05-10T06:04:19;24.15;;;15.23;;
23670;SDS011;12012;51.998;7.614;2023-05-10T06:06:45;29.35;;;16.92;;
23670;SDS011;12012;51.998;7.614;2023-05-10T06:09:11;28.13;;;17.58;;
23670;SDS011;12012;51.998;7.614;2023-05-10T06:11:37;26.45;;;14.52;;
23670;SDS011;12012;51.998;7.614;2023-05-10T06:14:03;34.38;;;20.70;;
23670;SDS011;12012;51.998;7.614;2023-05-10T06:16:29;27.40;;;14.55;;
23670;SDS011;12012;51.998;7.614;2023-05-10T06:18:56;35.83;;;20.90;;
23670;SDS011;12012;51.998;7.614;2023-05-10T06:21:21;34.25;;;20.40;;
23670;SDS011;12012;51.998;7.614;2023-05-10T06:23:47;37.78;;;21.25;;
23670;SDS011;12012;51.998;7.614;2023-05-10T06:26:13;27.88;;;15.90;;
23670;SDS011;12012;51.998;7.614;2023-05-10T06:28:38;39.78;;;21.25;;
23670;SDS011;12012;51.998;7.614;2023-05-10T06:31:05;38.05;;;20.80;;
23670;SDS011;12012;51.998;7.614;2023-05-10T06:33:31;38.60;;;21.38;;
23670;SDS011;12012;51.998;7.614;2023-05-10T06:35:57;43.42;;;22.80;;
23670;SDS011;12012;51.998;7.614;2023-05-10T06:38:22;28.63;;;16.73;;
23670;SDS011;12012;51.998;7.614;2023-05-10T06:40:48;42.75;;;22.73;;
23670;SDS011;12012;51.998;7.614;2023-05-10T06:43:14;45.85;;;22.13;;
23670;SDS011;12012;51.998;7.614;2023-05-10T06:45:39;46.25;;;22.90;;
23670;SDS011;12012;51.998;7.614;2023-05-10T06:48:06;45.60;;;22.45;;
23670;SDS011;12012;51.998;7.614;2023-05-10T06:50:32;43.70;;;21.85;;
23670;SDS011;12012;51.998;7.614;2023-05-10T06:52:58;47.13;;;23.35;;
23670;SDS011;12012;51.998;7.614;2023-05-10T06:55:24;47.60;;;22.30;;
23670;SDS011;12012;51.998;7.614;2023-05-10T06:57:49;42.92;;;22.10;;
23670;SDS011;12012;51.998;7.614;2023-05-10T07:00:15;39.67;;;20.75;;
23670;SDS011;12012;51.998;7.614;2023-05-10T07:02:41;36.95;;;20.15;;
23670;SDS011;12012;51.998;7.614;2023-05-10T07:05:07;41.08;;;20.73;;
23670;SDS011;12012;51.998;7.614;2023-05-10T07:07:33;39.28;;;20.33;;
23670;SDS011;12012;51.998;7.614;2023-05-10T07:09:59;40.78;;;21.13;;
23670;SDS011;12012;51.998;7.614;2023-05-10T07:12:25;35.22;;;20.08;;
23670;SDS011;12012;51.998;7.614;2023-05-10T07:14:51;39.17;;;22.27;;
23670;SDS011;12012;51.998;7.614;2023-05-10T07:17:16;42.97;;;24.45;;
23670;SDS011;12012;51.998;7.614;2023-05-10T07:19:42;42.00;;;22.55;;
23670;SDS011;12012;51.998;7.614;2023-05-10T07:22:08;47.55;;;24.40;;
23670;SDS011;12012;51.998;7.614;2023-05-10T07:24:35;40.05;;;22.95;;
23670;SDS011;12012;51.998;7.614;2023-05-10T07:27:01;41.13;;;23.65;;
23670;SDS011;12012;51.998;7.614;2023-05-10T07:29:26;45.03;;;26.13;;
23670;SDS011;12012;51.998;7.614;2023-05-10T07:31:53;41.00;;;23.95;;
23670;SDS011;12012;51.998;7.614;2023-05-10T07:34:19;42.30;;;24.35;;
23670;SDS011;12012;51.998;7.614;2023-05-10T07:36:44;38.83;;;24.08;;
23670;SDS011;12012;51.998;7.614;2023-05-10T07:39:10;46.70;;;27.83;;
23670;SDS011;12012;51.998;7.614;2023-05-10T07:41:36;43.90;;;26.98;;
23670;SDS011;12012;51.998;7.614;2023-05-10T07:44:02;41.85;;;25.67;;
23670;SDS011;12012;51.998;7.614;2023-05-10T07:46:28;45.92;;;26.10;;
23670;SDS011;12012;51.998;7.614;2023-05-10T07:48:54;40.35;;;24.92;;
23670;SDS011;12012;51.998;7.614;2023-05-10T07:51:20;39.60;;;24.65;;
23670;SDS011;12012;51.998;7.614;2023-05-10T07:53:46;34.97;;;23.58;;
23670;SDS011;12012;51.998;7.614;2023-05-10T07:58:52;38.65;;;24.60;;
23670;SDS011;12012;51.998;7.614;2023-05-10T08:01:19;40.40;;;24.08;;
23670;SDS011;12012;51.998;7.614;2023-05-10T08:03:44;36.95;;;23.92;;
23670;SDS011;12012;51.998;7.614;2023-05-10T08:06:10;35.85;;;23.08;;
23670;SDS011;12012;51.998;7.614;2023-05-10T08:08:36;32.90;;;22.80;;
23670;SDS011;12012;51.998;7.614;2023-05-10T08:11:01;32.95;;;23.38;;
23670;SDS011;12012;51.998;7.614;2023-05-10T08:13:27;36.15;;;23.90;;
23670;SDS011;12012;51.998;7.614;2023-05-10T08:15:52;34.50;;;23.58;;
23670;SDS011;12012;51.998;7.614;2023-05-10T08:18:18;36.40;;;24.50;;
23670;SDS011;12012;51.998;7.614;2023-05-10T08:20:44;36.90;;;25.25;;
23670;SDS011;12012;51.998;7.614;2023-05-10T08:23:11;39.75;;;24.00;;
23670;SDS011;12012;51.998;7.614;2023-05-10T08:25:37;35.63;;;23.85;;
23670;SDS011;12012;51.998;7.614;2023-05-10T08:28:03;35.85;;;24.23;;
23670;SDS011;12012;51.998;7.614;2023-05-10T08:30:29;37.90;;;24.52;;
23670;SDS011;12012;51.998;7.614;2023-05-10T08:32:54;34.03;;;23.05;;
23670;SDS011;12012;51.998;7.614;2023-05-10T08:35:20;33.45;;;21.83;;
23670;SDS011;12012;51.998;7.614;2023-05-10T08:37:46;32.05;;;20.85;;
23670;SDS011;12012;51.998;7.614;2023-05-10T08:40:11;37.85;;;24.92;;
23670;SDS011;12012;51.998;7.614;2023-05-10T08:42:39;34.92;;;22.60;;
23670;SDS011;12012;51.998;7.614;2023-05-10T08:45:09;40.70;;;23.80;;
23670;SDS011;12012;51.998;7.614;2023-05-10T08:47:36;34.05;;;22.92;;
23670;SDS011;12012;51.998;7.614;2023-05-10T08:50:03;38.30;;;23.08;;
23670;SDS011;12012;51.998;7.614;2023-05-10T08:52:30;37.38;;;23.40;;
23670;SDS011;12012;51.998;7.614;2023-05-10T08:54:57;35.30;;;22.88;;
23670;SDS011;12012;51.998;7.614;2023-05-10T08:57:23;34.85;;;23.02;;
23670;SDS011;12012;51.998;7.614;2023-05-10T08:59:49;34.92;;;23.42;;
23670;SDS011;12012;51.998;7.614;2023-05-10T09:02:15;32.17;;;21.95;;
23670;SDS011;12012;51.998;7.614;2023-05-10T09:04:41;30.90;;;21.33;;
23670;SDS011;12012;51.998;7.614;2023-05-10T09:07:07;35.00;;;22.17;;
23670;SDS011;12012;51.998;7.614;2023-05-10T09:09:33;33.65;;;20.70;;
23670;SDS011;12012;51.998;7.614;2023-05-10T09:11:59;30.27;;;19.75;;
23670;SDS011;12012;51.998;7.614;2023-05-10T09:14:25;30.25;;;19.27;;
23670;SDS011;12012;51.998;7.614;2023-05-10T09:16:51;29.52;;;20.75;;
23670;SDS011;12012;51.998;7.614;2023-05-10T09:19:19;25.63;;;17.98;;
23670;SDS011;12012;51.998;7.614;2023-05-10T09:21:44;30.58;;;18.05;;
23670;SDS011;12012;51.998;7.614;2023-05-10T09:24:10;30.38;;;20.02;;
23670;SDS011;12012;51.998;7.614;2023-05-10T09:26:45;29.88;;;19.35;;
23670;SDS011;12012;51.998;7.614;2023-05-10T09:29:14;32.20;;;19.95;;
23670;SDS011;12012;51.998;7.614;2023-05-10T09:31:44;30.35;;;20.50;;
23670;SDS011;12012;51.998;7.614;2023-05-10T09:34:13;29.35;;;19.75;;
23670;SDS011;12012;51.998;7.614;2023-05-10T09:36:51;27.35;;;19.05;;
23670;SDS011;12012;51.998;7.614;2023-05-10T09:39:29;27.20;;;18.85;;
23670;SDS011;12012;51.998;7.614;2023-05-10T09:41:57;25.83;;;18.35;;
23670;SDS011;12012;51.998;7.614;2023-05-10T09:44:25;26.38;;;18.23;;
23670;SDS011;12012;51.998;7.614;2023-05-10T09:46:51;29.77;;;19.30;;
23670;SDS011;12012;51.998;7.614;2023-05-10T09:49:17;26.23;;;19.17;;
23670;SDS011;12012;51.998;7.614;2023-05-10T09:51:44;28.65;;;18.85;;
23670;SDS011;12012;51.998;7.614;2023-05-10T09:54:11;30.75;;;20.42;;
23670;SDS011;12012;51.998;7.614;2023-05-10T09:56:38;29.98;;;21.23;;
23670;SDS011;12012;51.998;7.614;2023-05-10T09:59:05;30.63;;;20.50;;
23670;SDS011;12012;51.998;7.614;2023-05-10T10:01:33;30.40;;;19.98;;
23670;SDS011;12012;51.998;7.614;2023-05-10T10:03:59;29.38;;;19.77;;
23670;SDS011;12012;51.998;7.614;2023-05-10T10:06:35;30.17;;;20.10;;
23670;SDS011;12012;51.998;7.614;2023-05-10T10:09:06;28.42;;;19.30;;
23670;SDS011;12012;51.998;7.614;2023-05-10T10:11:36;25.30;;;18.77;;
23670;SDS011;12012;51.998;7.614;2023-05-10T10:14:03;22.02;;;16.02;;
23670;SDS011;12012;51.998;7.614;2023-05-10T10:16:30;26.77;;;19.05;;
23670;SDS011;12012;51.998;7.614;2023-05-10T10:18:57;27.63;;;18.48;;
23670;SDS011;12012;51.998;7.614;2023-05-10T10:21:23;32.45;;;19.58;;
23670;SDS011;12012;51.998;7.614;2023-05-10T10:23:49;26.80;;;18.95;;
23670;SDS011;12012;51.998;7.614;2023-05-10T10:26:16;26.15;;;18.23;;
23670;SDS011;12012;51.998;7.614;2023-05-10T10:31:15;23.95;;;17.80;;
23670;SDS011;12012;51.998;7.614;2023-05-10T10:34:03;25.42;;;18.23;;
23670;SDS011;12012;51.998;7.614;2023-05-10T10:36:32;25.40;;;18.20;;
23670;SDS011;12012;51.998;7.614;2023-05-10T10:39:08;26.67;;;18.00;;
23670;SDS011;12012;51.998;7.614;2023-05-10T10:41:35;25.45;;;17.63;;
23670;SDS011;12012;51.998;7.614;2023-05-10T10:44:23;25.83;;;17.52;;
23670;SDS011;12012;51.998;7.614;2023-05-10T10:50:05;25.45;;;17.08;;
23670;SDS011;12012;51.998;7.614;2023-05-10T10:57:46;21.25;;;16.48;;
23670;SDS011;12012;51.998;7.614;2023-05-10T11:00:17;19.63;;;15.57;;
23670;SDS011;12012;51.998;7.614;2023-05-10T11:02:43;22.35;;;17.10;;
23670;SDS011;12012;51.998;7.614;2023-05-10T11:15:59;20.80;;;16.00;;
23670;SDS011;12012;51.998;7.614;2023-05-10T11:18:37;19.17;;;14.07;;
23670;SDS011;12012;51.998;7.614;2023-05-10T11:21:03;17.67;;;13.15;;
23670;SDS011;12012;51.998;7.614;2023-05-10T11:23:30;18.75;;;14.07;;
23670;SDS011;12012;51.998;7.614;2023-05-10T11:25:58;18.23;;;13.30;;
23670;SDS011;12012;51.998;7.614;2023-05-10T11:28:26;16.13;;;12.32;;
23670;SDS011;12012;51.998;7.614;2023-05-10T11:30:53;18.65;;;13.73;;
23670;SDS011;12012;51.998;7.614;2023-05-10T11:33:19;18.92;;;14.20;;
23670;SDS011;12012;51.998;7.614;2023-05-10T11:35:45;21.52;;;15.05;;
23670;SDS011;12012;51.998;7.614;2023-05-10T11:38:11;23.25;;;16.23;;
23670;SDS011;12012;51.998;7.614;2023-05-10T11:40:38;25.40;;;16.45;;
23670;SDS011;12012;51.998;7.614;2023-05-10T11:43:04;21.33;;;14.35;;
23670;SDS011;12012;51.998;7.614;2023-05-10T11:45:34;21.63;;;15.90;;
23670;SDS011;12012;51.998;7.614;2023-05-10T11:48:00;20.75;;;15.45;;
23670;SDS011;12012;51.998;7.614;2023-05-10T11:50:27;23.42;;;16.45;;
23670;SDS011;12012;51.998;7.614;2023-05-10T11:52:54;19.25;;;14.18;;
23670;SDS011;12012;51.998;7.614;2023-05-10T11:55:21;22.92;;;16.08;;
23670;SDS011;12012;51.998;7.614;2023-05-10T11:57:47;20.05;;;15.40;;
23670;SDS011;12012;51.998;7.614;2023-05-10T12:00:16;19.63;;;14.70;;
23670;SDS011;12012;51.998;7.614;2023-05-10T12:02:41;20.33;;;15.55;;
23670;SDS011;12012;51.998;7.614;2023-05-10T12:05:08;19.65;;;15.32;;
23670;SDS011;12012;51.998;7.614;2023-05-10T12:07:34;18.27;;;14.32;;
23670;SDS011;12012;51.998;7.614;2023-05-10T12:12:45;18.83;;;12.80;;
23670;SDS011;12012;51.998;7.614;2023-05-10T12:15:21;17.58;;;12.55;;
23670;SDS011;12012;51.998;7.614;2023-05-10T12:17:48;13.95;;;11.30;;
23670;SDS011;12012;51.998;7.614;2023-05-10T12:20:21;14.50;;;11.88;;
23670;SDS011;12012;51.998;7.614;2023-05-10T12:22:50;12.15;;;8.98;;
23670;SDS011;12012;51.998;7.614;2023-05-10T12:25:20;10.15;;;8.45;;
23670;SDS011;12012;51.998;7.614;2023-05-10T12:27:50;10.40;;;7.68;;
23670;SDS011;12012;51.998;7.614;2023-05-10T12:30:24;11.40;;;8.82;;
23670;SDS011;12012;51.998;7.614;2023-05-10T12:32:54;10.48;;;8.88;;
23670;SDS011;12012;51.998;7.614;2023-05-10T12:35:31;11.20;;;9.90;;
23670;SDS011;12012;51.998;7.614;2023-05-10T12:37:57;10.32;;;9.18;;
23670;SDS011;12012;51.998;7.614;2023-05-10T12:40:23;13.52;;;10.82;;
23670;SDS011;12012;51.998;7.614;2023-05-10T12:42:49;11.13;;;9.15;;
23670;SDS011;12012;51.998;7.614;2023-05-10T12:45:15;12.85;;;10.18;;
23670;SDS011;12012;51.998;7.614;2023-05-10T12:47:42;14.15;;;10.52;;
23670;SDS011;12012;51.998;7.614;2023-05-10T12:50:08;14.23;;;10.50;;
23670;SDS011;12012;51.998;7.614;2023-05-10T12:52:34;11.18;;;9.70;;
23670;SDS011;12012;51.998;7.614;2023-05-10T12:54:59;12.88;;;10.50;;
23670;SDS011;12012;51.998;7.614;2023-05-10T12:57:25;10.90;;;9.35;;
23670;SDS011;12012;51.998;7.614;2023-05-10T12:59:52;14.57;;;10.60;;
23670;SDS011;12012;51.998;7.614;2023-05-10T13:02:17;12.07;;;10.02;;
23670;SDS011;12012;51.998;7.614;2023-05-10T13:04:43;13.13;;;8.43;;
23670;SDS011;12012;51.998;7.614;2023-05-10T13:07:09;11.75;;;9.20;;
23670;SDS011;12012;51.998;7.614;2023-05-10T13:09:35;12.40;;;9.15;;
23670;SDS011;12012;51.998;7.614;2023-05-10T13:12:01;12.82;;;9.50;;
23670;SDS011;12012;51.998;7.614;2023-05-10T13:14:27;10.23;;;7.68;;
23670;SDS011;12012;51.998;7.614;2023-05-10T13:16:54;12.05;;;7.93;;
23670;SDS011;12012;51.998;7.614;2023-05-10T13:19:20;11.90;;;7.70;;
23670;SDS011;12012;51.998;7.614;2023-05-10T13:21:46;10.98;;;8.05;;
23670;SDS011;12012;51.998;7.614;2023-05-10T13:24:11;16.80;;;11.00;;
23670;SDS011;12012;51.998;7.614;2023-05-10T13:26:41;14.55;;;10.60;;
23670;SDS011;12012;51.998;7.614;2023-05-10T13:29:07;18.23;;;12.65;;
23670;SDS011;12012;51.998;7.614;2023-05-10T13:31:33;18.67;;;12.35;;
23670;SDS011;12012;51.998;7.614;2023-05-10T13:33:59;22.30;;;14.27;;
23670;SDS011;12012;51.998;7.614;2023-05-10T13:36:25;20.83;;;14.57;;
23670;SDS011;12012;51.998;7.614;2023-05-10T13:38:51;19.75;;;13.35;;
23670;SDS011;12012;51.998;7.614;2023-05-10T13:41:16;21.60;;;14.82;;
23670;SDS011;12012;51.998;7.614;2023-05-10T13:43:42;18.27;;;12.93;;
23670;SDS011;12012;51.998;7.614;2023-05-10T13:46:08;23.92;;;16.77;;
23670;SDS011;12012;51.998;7.614;2023-05-10T13:48:33;25.00;;;16.73;;
23670;SDS011;12012;51.998;7.614;2023-05-10T13:50:59;22.25;;;15.35;;
23670;SDS011;12012;51.998;7.614;2023-05-10T13:53:24;23.73;;;15.93;;
23670;SDS011;12012;51.998;7.614;2023-05-10T13:55:50;23.05;;;16.02;;
23670;SDS011;12012;51.998;7.614;2023-05-10T13:58:16;21.20;;;15.52;;
23670;SDS011;12012;51.998;7.614;2023-05-10T14:00:41;22.38;;;16.67;;
23670;SDS011;12012;51.998;7.614;2023-05-10T14:03:07;23.30;;;15.93;;
23670;SDS011;12012;51.998;7.614;2023-05-10T14:05:34;24.90;;;17.17;;
23670;SDS011;12012;51.998;7.614;2023-05-10T14:07:59;23.80;;;16.35;;
23670;SDS011;12012;51.998;7.614;2023-05-10T14:10:25;20.98;;;13.85;;
23670;SDS011;12012;51.998;7.614;2023-05-10T14:12:50;15.73;;;11.93;;
23670;SDS011;12012;51.998;7.614;2023-05-10T14:15:16;17.13;;;11.63;;
23670;SDS011;12012;51.998;7.614;2023-05-10T14:17:41;16.25;;;11.45;;
23670;SDS011;12012;51.998;7.614;2023-05-10T14:20:07;17.58;;;11.70;;
23670;SDS011;12012;51.998;7.614;2023-05-10T14:22:33;17.88;;;11.93;;
23670;SDS011;12012;51.998;7.614;2023-05-10T14:24:59;17.30;;;11.82;;
23670;SDS011;12012;51.998;7.614;2023-05-10T14:27:25;16.05;;;12.30;;
23670;SDS011;12012;51.998;7.614;2023-05-10T14:29:51;21.33;;;13.32;;
23670;SDS011;12012;51.998;7.614;2023-05-10T14:32:16;19.20;;;13.00;;
23670;SDS011;12012;51.998;7.614;2023-05-10T14:34:42;19.00;;;13.00;;
23670;SDS011;12012;51.998;7.614;2023-05-10T14:37:09;19.02;;;12.40;;
23670;SDS011;12012;51.998;7.614;2023-05-10T14:39:36;24.55;;;15.05;;
23670;SDS011;12012;51.998;7.614;2023-05-10T14:42:02;16.25;;;12.30;;
23670;SDS011;12012;51.998;7.614;2023-05-10T14:44:28;17.80;;;13.57;;
23670;SDS011;12012;51.998;7.614;2023-05-10T14:46:53;20.52;;;14.02;;
23670;SDS011;12012;51.998;7.614;2023-05-10T14:49:20;21.35;;;13.70;;
23670;SDS011;12012;51.998;7.614;2023-05-10T14:51:47;19.55;;;13.77;;
23670;SDS011;12012;51.998;7.614;2023-05-10T14:54:13;20.80;;;14.00;;
23670;SDS011;12012;51.998;7.614;2023-05-10T14:59:04;20.83;;;15.13;;
23670;SDS011;12012;51.998;7.614;2023-05-10T15:01:30;21.52;;;14.57;;
23670;SDS011;12012;51.998;7.614;2023-05-10T15:03:57;17.05;;;12.68;;
23670;SDS011;12012;51.998;7.614;2023-05-10T15:06:23;17.45;;;13.57;;
23670;SDS011;12012;51.998;7.614;2023-05-10T15:08:55;19.15;;;13.40;;
23670;SDS011;12012;51.998;7.614;2023-05-10T15:11:20;18.70;;;14.93;;
23670;SDS011;12012;51.998;7.614;2023-05-10T15:13:46;18.25;;;12.82;;
23670;SDS011;12012;51.998;7.614;2023-05-10T15:16:12;19.38;;;14.13;;